Time;durP1;ratioP1;P1;durP2;ratioP2;P2;SDS_P1;SDS_P2;PMS_P1;PMS_P2;Temp;Humidity;BMP_temperature;BMP_pressure;BME280_temperature;BME280_humidity;BME280_pressure;Samples;Min_cycle;Max_cycle;Signal;HPM_P1;HPM_P2
2021/03/19 00:00:29;;;;;;;8.05;3.20;;;5.00;93.70;;;;;;5072819;28;20064;-73
2021/03/19 00:02:55;;;;;;;7.88;2.53;;;5.00;93.40;;;;;;5073055;28;20028;-73
2021/03/19 00:05:23;;;;;;;10.55;5.28;;;5.00;93.60;;;;;;5072954;28;20021;-73
2021/03/19 00:07:52;;;;;;;7.28;3.38;;;5.00;93.90;;;;;;5054865;28;20473;-73
2021/03/19 00:10:21;;;;;;;6.85;3.45;;;5.00;94.00;;;;;;5072889;28;20044;-74
2021/03/19 00:12:47;;;;;;;5.93;2.97;;;5.00;94.20;;;;;;5073235;28;20023;-73
2021/03/19 00:15:14;;;;;;;6.88;3.58;;;4.90;94.20;;;;;;5054868;28;20438;-73
2021/03/19 00:17:40;;;;;;;9.15;3.97;;;4.80;94.00;;;;;;5055034;28;20055;-72
2021/03/19 00:20:08;;;;;;;5.55;2.88;;;4.80;93.80;;;;;;5072934;28;20055;-73
2021/03/19 00:22:34;;;;;;;7.68;5.00;;;4.80;94.10;;;;;;5062768;28;20020;-73
2021/03/19 00:25:01;;;;;;;8.65;3.58;;;4.70;94.20;;;;;;5093098;28;20461;-74
2021/03/19 00:27:27;;;;;;;9.60;4.40;;;4.80;94.50;;;;;;5074615;28;20020;-74
2021/03/19 00:29:53;;;;;;;9.70;5.10;;;4.80;94.40;;;;;;5093025;28;20051;-74
2021/03/19 00:32:18;;;;;;;7.72;3.53;;;4.70;94.50;;;;;;5074588;28;20372;-74
2021/03/19 00:34:44;;;;;;;10.45;4.88;;;4.70;94.40;;;;;;5074754;28;20471;-74
2021/03/19 00:37:10;;;;;;;4.15;2.15;;;4.60;94.10;;;;;;5074559;28;20027;-74
2021/03/19 00:39:36;;;;;;;9.63;3.90;;;4.60;94.50;;;;;;5092882;28;20027;-74
2021/03/19 00:42:02;;;;;;;6.60;3.50;;;4.50;94.50;;;;;;5092827;28;20024;-74
2021/03/19 00:44:28;;;;;;;7.55;5.00;;;4.50;94.60;;;;;;5092616;28;20047;-74
2021/03/19 00:46:54;;;;;;;7.93;4.80;;;4.50;94.60;;;;;;5092921;28;20039;-74
2021/03/19 00:49:20;;;;;;;8.15;4.28;;;4.40;94.50;;;;;;5092513;28;20031;-72
2021/03/19 00:51:46;;;;;;;10.90;4.72;;;4.40;94.50;;;;;;5074666;28;20016;-73
2021/03/19 00:54:12;;;;;;;8.57;5.05;;;4.30;94.30;;;;;;5074327;28;20475;-73
2021/03/19 00:56:37;;;;;;;7.70;4.40;;;4.20;94.50;;;;;;5092339;28;20442;-73
2021/03/19 00:59:06;;;;;;;7.68;4.45;;;4.20;94.50;;;;;;5074175;28;20274;-73
2021/03/19 01:01:35;;;;;;;5.55;2.90;;;4.20;94.70;;;;;;5074133;28;20047;-74
2021/03/19 01:04:05;;;;;;;11.23;6.03;;;4.20;94.80;;;;;;5074298;28;20019;-74
2021/03/19 01:06:31;;;;;;;8.85;4.45;;;4.20;94.80;;;;;;5073868;28;20016;-71
2021/03/19 01:08:58;;;;;;;7.03;4.00;;;4.20;94.90;;;;;;5073799;28;20092;-73
2021/03/19 01:11:26;;;;;;;8.85;4.72;;;4.20;95.20;;;;;;5074027;28;20016;-73
2021/03/19 01:13:51;;;;;;;5.60;3.38;;;4.10;94.80;;;;;;5074040;28;20286;-73
2021/03/19 01:16:17;;;;;;;8.35;4.85;;;4.00;94.80;;;;;;5073578;28;20419;-73
2021/03/19 01:18:43;;;;;;;11.63;4.90;;;4.00;94.90;;;;;;5074309;28;20428;-73
2021/03/19 01:21:09;;;;;;;8.32;3.65;;;4.00;94.90;;;;;;5092651;28;20068;-73
2021/03/19 01:23:34;;;;;;;9.23;4.90;;;4.00;95.00;;;;;;5091652;28;20450;-73
2021/03/19 01:26:00;;;;;;;10.90;6.28;;;4.00;95.00;;;;;;5074138;28;20123;-74
2021/03/19 01:28:25;;;;;;;7.38;3.40;;;4.00;94.90;;;;;;5073948;28;20016;-73
2021/03/19 01:30:51;;;;;;;9.77;3.65;;;4.00;94.90;;;;;;5073957;28;20038;-73
2021/03/19 01:33:18;;;;;;;11.32;5.80;;;4.00;95.00;;;;;;5091996;28;20055;-73
2021/03/19 01:35:44;;;;;;;12.25;6.03;;;3.90;94.90;;;;;;5092214;28;20048;-72
2021/03/19 01:38:11;;;;;;;12.02;6.97;;;3.80;94.80;;;;;;5092230;28;20024;-74
2021/03/19 01:40:48;;;;;;;9.10;4.45;;;3.80;94.90;;;;;;5091662;28;20077;-73
2021/03/19 01:43:34;;;;;;;5.18;2.03;;;3.80;95.10;;;;;;5073810;28;20020;-73
2021/03/19 01:46:38;;;;;;;10.90;5.68;;;3.80;95.10;;;;;;5092349;28;20025;-74
2021/03/19 01:49:41;;;;;;;11.48;7.05;;;3.90;95.00;;;;;;5092049;28;20038;-74
2021/03/19 01:52:43;;;;;;;16.33;6.90;;;3.80;95.00;;;;;;5091752;28;20468;-73
2021/03/19 01:55:46;;;;;;;11.50;7.00;;;3.70;95.10;;;;;;5092015;28;20020;-73
2021/03/19 01:58:49;;;;;;;14.73;6.90;;;3.60;95.10;;;;;;5073740;28;20016;-74
2021/03/19 02:01:52;;;;;;;13.63;6.90;;;3.50;95.10;;;;;;5073543;28;20058;-72
2021/03/19 02:04:56;;;;;;;14.23;7.30;;;3.50;95.20;;;;;;5073428;28;20043;-73
2021/03/19 02:07:59;;;;;;;11.40;5.78;;;3.40;95.30;;;;;;5073297;28;20062;-73
2021/03/19 02:11:02;;;;;;;12.35;7.43;;;3.40;95.30;;;;;;5091568;28;20445;-73
2021/03/19 02:14:05;;;;;;;14.55;8.07;;;3.30;95.30;;;;;;5091747;28;20027;-73
2021/03/19 02:17:08;;;;;;;18.30;9.02;;;3.30;95.40;;;;;;5073401;28;20024;-73
2021/03/19 02:20:11;;;;;;;9.38;4.35;;;3.20;95.30;;;;;;5091603;28;20094;-73
2021/03/19 02:23:14;;;;;;;12.25;6.70;;;3.20;95.40;;;;;;5073236;28;20444;-73
2021/03/19 02:26:17;;;;;;;12.18;5.63;;;3.20;95.50;;;;;;5073370;28;20460;-73
2021/03/19 02:29:20;;;;;;;10.57;4.82;;;3.20;95.40;;;;;;5092894;28;20027;-74
2021/03/19 02:32:14;;;;;;;14.57;7.72;;;3.20;95.40;;;;;;5095129;28;20016;-73
2021/03/19 02:34:54;;;;;;;11.05;7.63;;;3.20;95.50;;;;;;5095172;28;20016;-72
2021/03/19 02:37:26;;;;;;;13.70;6.72;;;3.20;95.50;;;;;;5095139;28;20020;-73
2021/03/19 02:39:53;;;;;;;13.85;7.80;;;3.20;95.40;;;;;;5095263;28;20047;-74
2021/03/19 02:42:22;;;;;;;14.80;8.00;;;3.20;95.50;;;;;;5076821;28;20027;-74
2021/03/19 02:44:48;;;;;;;13.57;8.10;;;3.10;95.30;;;;;;5076998;28;20363;-73
2021/03/19 02:47:15;;;;;;;16.45;8.57;;;3.10;95.30;;;;;;5095147;28;20015;-74
2021/03/19 02:49:40;;;;;;;16.55;8.35;;;3.10;95.30;;;;;;5076583;28;20059;-73
2021/03/19 02:52:06;;;;;;;14.55;8.65;;;3.10;95.30;;;;;;5076832;28;20058;-73
2021/03/19 02:54:32;;;;;;;13.73;7.95;;;3.00;95.20;;;;;;5076573;28;20020;-74
2021/03/19 02:56:58;;;;;;;16.45;7.97;;;3.00;95.00;;;;;;5094704;28;20027;-74
2021/03/19 02:59:23;;;;;;;10.55;5.70;;;2.90;95.00;;;;;;5094637;28;20016;-73
2021/03/19 03:01:50;;;;;;;15.68;8.95;;;2.90;95.00;;;;;;5076603;28;20356;-73
2021/03/19 03:04:17;;;;;;;17.55;7.68;;;2.90;95.10;;;;;;5094844;28;20094;-74
2021/03/19 03:06:54;;;;;;;13.05;8.30;;;2.80;95.10;;;;;;5094613;28;20067;-73
2021/03/19 03:09:24;;;;;;;12.88;8.00;;;2.80;95.30;;;;;;5094460;28;20085;-74
2021/03/19 03:11:50;;;;;;;12.40;5.20;;;2.80;95.30;;;;;;5094937;28;20020;-73
2021/03/19 03:14:19;;;;;;;14.88;8.85;;;2.90;95.30;;;;;;5076679;28;20325;-73
2021/03/19 03:16:45;;;;;;;12.65;8.20;;;2.80;95.20;;;;;;5094728;28;20441;-73
2021/03/19 03:19:15;;;;;;;10.32;5.07;;;2.80;95.00;;;;;;5076581;28;20043;-73
2021/03/19 03:21:41;;;;;;;8.85;4.97;;;2.80;95.20;;;;;;5076431;28;20020;-73
2021/03/19 03:24:09;;;;;;;11.38;6.03;;;2.80;95.30;;;;;;5094941;28;20460;-73
2021/03/19 03:26:34;;;;;;;14.05;6.90;;;2.80;95.30;;;;;;5075929;28;20024;-73
2021/03/19 03:29:00;;;;;;;14.55;7.88;;;2.80;95.20;;;;;;5073966;28;20283;-73
2021/03/19 03:31:26;;;;;;;7.85;4.22;;;2.80;95.00;;;;;;5075881;28;20478;-73
2021/03/19 03:33:52;;;;;;;9.05;3.88;;;2.80;95.20;;;;;;5076037;28;20016;-73
2021/03/19 03:36:18;;;;;;;12.45;6.68;;;2.70;95.20;;;;;;5076026;28;20012;-74
2021/03/19 03:38:43;;;;;;;13.50;7.85;;;2.80;95.40;;;;;;5093495;28;20056;-73
2021/03/19 03:41:16;;;;;;;11.18;4.82;;;2.70;95.20;;;;;;5094072;28;20472;-74
2021/03/19 03:43:42;;;;;;;10.73;5.25;;;2.70;95.00;;;;;;5075740;28;20360;-73
2021/03/19 03:46:12;;;;;;;14.48;7.05;;;2.70;95.00;;;;;;5075884;28;20411;-74
2021/03/19 03:48:38;;;;;;;14.35;7.72;;;2.70;95.20;;;;;;5093375;28;20512;-74
2021/03/19 03:51:06;;;;;;;13.45;7.90;;;2.60;95.10;;;;;;5075630;28;20020;-74
2021/03/19 03:53:33;;;;;;;9.95;4.22;;;2.60;94.90;;;;;;5075378;28;20416;-74
2021/03/19 03:55:59;;;;;;;8.00;3.22;;;2.60;95.10;;;;;;5075636;28;20043;-73
2021/03/19 03:58:25;;;;;;;13.27;7.38;;;2.60;95.40;;;;;;5075428;28;20031;-70
2021/03/19 04:00:50;;;;;;;18.90;8.32;;;2.60;95.40;;;;;;5094021;28;20441;-73
2021/03/19 04:03:17;;;;;;;18.60;7.82;;;2.60;95.20;;;;;;5075454;28;20043;-73
2021/03/19 04:05:45;;;;;;;14.95;8.10;;;2.50;95.10;;;;;;5075114;28;20023;-73
2021/03/19 04:08:18;;;;;;;13.23;6.10;;;2.50;95.00;;;;;;5093445;28;20040;-73
2021/03/19 04:10:45;;;;;;;13.68;7.10;;;2.50;95.00;;;;;;5074917;28;20539;-73
2021/03/19 04:13:11;;;;;;;12.90;7.35;;;2.50;94.90;;;;;;5075329;28;20035;-73
2021/03/19 04:15:39;;;;;;;15.43;7.35;;;2.50;95.00;;;;;;5092875;28;20016;-73
2021/03/19 04:18:08;;;;;;;13.05;7.22;;;2.40;94.70;;;;;;5075234;28;20016;-73
2021/03/19 04:20:34;;;;;;;15.65;7.65;;;2.40;94.70;;;;;;5092647;28;20111;-73
2021/03/19 04:23:01;;;;;;;12.63;5.47;;;2.40;94.50;;;;;;5093561;28;20101;-73
2021/03/19 04:25:26;;;;;;;14.13;7.18;;;2.30;94.50;;;;;;5074771;28;20466;-73
2021/03/19 04:27:55;;;;;;;12.85;7.47;;;2.30;94.80;;;;;;5075127;28;20107;-73
2021/03/19 04:30:30;;;;;;;12.20;6.47;;;2.30;94.70;;;;;;5092944;28;20028;-73
2021/03/19 04:32:57;;;;;;;14.07;7.82;;;2.30;94.60;;;;;;5074740;28;20020;-74
2021/03/19 04:35:24;;;;;;;15.88;7.75;;;2.30;94.40;;;;;;5092978;28;20023;-74
2021/03/19 04:37:58;;;;;;;16.88;8.05;;;2.20;94.30;;;;;;5092968;28;20161;-74
2021/03/19 04:40:25;;;;;;;15.95;7.53;;;2.20;94.30;;;;;;5092946;28;20024;-74
2021/03/19 04:42:51;;;;;;;13.10;6.45;;;2.20;94.40;;;;;;5074732;28;20102;-73
2021/03/19 04:45:18;;;;;;;12.02;5.93;;;2.20;94.20;;;;;;5074657;28;20026;-72
2021/03/19 04:47:44;;;;;;;11.82;6.32;;;2.20;94.50;;;;;;5092344;28;20389;-73
2021/03/19 04:50:12;;;;;;;9.13;4.40;;;2.20;94.70;;;;;;5092311;28;20365;-73
2021/03/19 04:52:37;;;;;;;12.93;7.18;;;2.30;95.10;;;;;;5092066;28;20099;-73
2021/03/19 04:55:04;;;;;;;12.52;6.50;;;2.30;95.00;;;;;;5074537;28;20107;-73
2021/03/19 04:57:31;;;;;;;15.27;6.35;;;2.30;94.80;;;;;;5074165;28;20023;-73
2021/03/19 04:59:57;;;;;;;12.35;6.10;;;2.30;94.80;;;;;;5092954;28;20032;-73
2021/03/19 05:02:36;;;;;;;15.55;6.10;;;2.30;94.70;;;;;;5092887;28;20031;-73
2021/03/19 05:05:02;;;;;;;14.30;6.75;;;2.30;94.70;;;;;;5074395;28;20020;-73
2021/03/19 05:07:28;;;;;;;14.57;6.93;;;2.20;94.70;;;;;;5073954;28;20491;-74
2021/03/19 05:09:53;;;;;;;8.85;4.40;;;2.20;94.60;;;;;;5074167;28;20020;-73
2021/03/19 05:12:20;;;;;;;13.55;5.88;;;2.20;94.80;;;;;;5092426;28;20134;-73
2021/03/19 05:14:46;;;;;;;17.45;7.03;;;2.20;94.90;;;;;;5073825;28;20020;-73
2021/03/19 05:17:11;;;;;;;13.82;6.20;;;2.20;94.50;;;;;;5092499;28;20069;-73
2021/03/19 05:19:37;;;;;;;11.90;6.55;;;2.10;94.30;;;;;;5092307;28;20016;-73
2021/03/19 05:22:03;;;;;;;12.13;5.95;;;2.10;94.10;;;;;;5092147;28;20077;-73
2021/03/19 05:24:29;;;;;;;12.02;5.63;;;2.10;93.90;;;;;;5092139;28;20046;-72
2021/03/19 05:26:54;;;;;;;14.00;5.45;;;2.10;94.70;;;;;;5092279;28;20020;-73
2021/03/19 05:29:20;;;;;;;15.35;6.15;;;2.10;94.90;;;;;;5092072;28;20028;-73
2021/03/19 05:31:45;;;;;;;12.23;6.07;;;2.10;94.70;;;;;;5092051;28;20024;-73
2021/03/19 05:34:13;;;;;;;13.80;5.25;;;2.10;94.50;;;;;;5074076;28;20570;-73
2021/03/19 05:36:38;;;;;;;9.85;4.95;;;2.00;94.30;;;;;;5091924;28;20013;-73
2021/03/19 05:39:06;;;;;;;14.35;6.88;;;2.10;94.90;;;;;;5073913;28;20028;-73
2021/03/19 05:41:34;;;;;;;14.73;6.53;;;2.10;94.70;;;;;;5073772;28;20085;-73
2021/03/19 05:44:12;;;;;;;8.20;4.65;;;2.00;94.50;;;;;;5073964;28;20016;-73
2021/03/19 05:46:44;;;;;;;12.93;5.93;;;2.10;94.60;;;;;;5073673;28;20021;-73
2021/03/19 05:49:18;;;;;;;7.65;3.50;;;2.10;94.50;;;;;;5091675;28;20343;-73
2021/03/19 05:52:06;;;;;;;12.30;6.38;;;2.10;94.50;;;;;;5091727;28;20456;-72
2021/03/19 05:54:34;;;;;;;14.18;6.45;;;2.10;94.30;;;;;;5059153;28;20060;-73
2021/03/19 05:57:00;;;;;;;11.20;6.05;;;2.10;93.50;;;;;;5073877;28;20023;-73
2021/03/19 05:59:30;;;;;;;11.60;6.18;;;2.00;93.20;;;;;;5092132;28;20015;-73
2021/03/19 06:01:55;;;;;;;15.90;5.68;;;2.10;93.00;;;;;;5074363;28;20024;-74
2021/03/19 06:04:24;;;;;;;11.18;5.88;;;2.10;93.00;;;;;;5095689;28;20363;-74
2021/03/19 06:07:01;;;;;;;11.32;5.15;;;2.10;93.00;;;;;;5077517;28;20441;-74
2021/03/19 06:09:34;;;;;;;14.52;6.60;;;2.20;93.40;;;;;;5077258;28;20070;-74
2021/03/19 06:12:07;;;;;;;10.10;4.68;;;2.20;93.90;;;;;;5096031;28;20038;-74
2021/03/19 06:15:02;;;;;;;12.38;5.20;;;2.30;94.20;;;;;;5095436;28;20047;-74
2021/03/19 06:17:42;;;;;;;10.50;6.32;;;2.30;94.10;;;;;;5094669;28;20689;-74
2021/03/19 06:20:12;;;;;;;10.20;6.28;;;2.40;93.20;;;;;;5077563;28;20098;-73
2021/03/19 06:22:45;;;;;;;;;;;2.50;92.80;;;;;;5095696;28;20020;-74
2021/03/19 06:25:29;;;;;;;12.68;6.15;;;2.60;93.10;;;;;;5077345;28;19900;-74
2021/03/19 06:27:58;;;;;;;12.02;4.53;;;2.60;93.20;;;;;;5076960;28;20031;-74
2021/03/19 06:30:38;;;;;;;14.20;6.32;;;2.70;94.10;;;;;;5077078;28;20448;-73
2021/03/19 06:33:06;;;;;;;8.75;4.93;;;2.80;93.90;;;;;;5095377;28;20028;-73
2021/03/19 06:35:36;;;;;;;16.85;6.85;;;2.90;94.20;;;;;;5095279;28;20468;-73
2021/03/19 06:38:26;;;;;;;10.65;5.32;;;2.90;94.00;;;;;;5060922;28;20027;-73
2021/03/19 06:40:52;;;;;;;;;;;3.10;94.20;;;;;;5056986;28;20036;-73
2021/03/19 06:43:23;;;;;;;10.80;4.78;;;3.20;94.40;;;;;;5056673;28;19907;-74
2021/03/19 06:46:26;;;;;;;10.43;5.50;;;3.30;94.90;;;;;;5056706;28;20055;-73
2021/03/19 06:48:55;;;;;;;11.60;6.35;;;3.40;94.60;;;;;;5015898;28;20064;-73
2021/03/19 06:51:32;;;;;;;12.07;5.10;;;3.50;94.60;;;;;;5074901;28;20029;-73
2021/03/19 06:54:21;;;;;;;8.73;4.75;;;3.60;94.30;;;;;;5056694;28;20027;-74
2021/03/19 06:57:04;;;;;;;9.70;5.85;;;3.70;94.60;;;;;;5056380;28;20518;-73
2021/03/19 06:59:44;;;;;;;13.57;6.25;;;3.80;93.20;;;;;;5074407;28;20024;-74
2021/03/19 07:02:45;;;;;;;9.77;5.68;;;3.90;92.60;;;;;;5075841;28;20016;-74
2021/03/19 07:05:30;;;;;;;13.00;3.85;;;4.00;92.60;;;;;;5059186;28;20377;-74
2021/03/19 07:08:09;;;;;;;8.23;4.10;;;4.20;93.60;;;;;;5093396;28;20214;-72
2021/03/19 07:10:47;;;;;;;8.05;3.60;;;4.40;94.00;;;;;;5075437;28;20055;-73
2021/03/19 07:13:28;;;;;;;11.50;4.45;;;4.60;94.70;;;;;;5094097;28;20016;-73
2021/03/19 07:16:17;;;;;;;4.65;1.67;;;4.70;94.50;;;;;;5075537;28;20586;-73
2021/03/19 07:19:14;;;;;;;6.00;2.70;;;4.80;94.80;;;;;;5094280;28;20061;-73
2021/03/19 07:21:56;;;;;;;6.70;2.42;;;4.90;94.70;;;;;;5075128;28;20016;-73
2021/03/19 07:24:42;;;;;;;10.05;5.07;;;4.90;94.70;;;;;;5091116;28;20032;-73
2021/03/19 07:27:41;;;;;;;12.88;5.53;;;5.10;94.50;;;;;;5091682;28;20032;-73
2021/03/19 07:30:13;;;;;;;3.93;2.07;;;5.20;93.60;;;;;;5076032;28;20341;-74
2021/03/19 07:33:09;;;;;;;6.57;2.90;;;5.30;94.50;;;;;;5094008;28;20047;-73
2021/03/19 07:36:05;;;;;;;10.15;4.13;;;5.50;94.60;;;;;;5075188;28;20467;-73
2021/03/19 07:38:51;;;;;;;11.18;4.70;;;5.70;94.20;;;;;;5075214;28;20012;-73
2021/03/19 07:41:47;;;;;;;6.82;3.25;;;5.80;93.80;;;;;;5055897;28;20016;-74
2021/03/19 07:44:35;;;;;;;11.05;4.53;;;5.90;91.50;;;;;;5055955;28;20021;-74
2021/03/19 07:47:06;;;;;;;8.85;3.65;;;6.00;86.60;;;;;;5074148;28;20017;-73
2021/03/19 07:49:44;;;;;;;7.63;4.55;;;6.10;87.20;;;;;;5073709;28;20021;-73
2021/03/19 07:52:40;;;;;;;6.43;2.60;;;6.30;90.00;;;;;;5055409;28;20031;-74
2021/03/19 07:55:24;;;;;;;10.95;3.67;;;6.40;91.00;;;;;;5073566;28;20103;-73
2021/03/19 07:58:10;;;;;;;7.63;2.70;;;6.70;93.10;;;;;;5055078;28;20040;-73
2021/03/19 08:00:40;;;;;;;7.88;3.33;;;6.90;91.90;;;;;;5022022;28;20563;-72
2021/03/19 08:03:11;;;;;;;;;;;7.00;91.80;;;;;;5073250;28;20039;-72
2021/03/19 08:05:45;;;;;;;7.55;3.05;;;7.20;86.00;;;;;;5073282;28;19900;-72
2021/03/19 08:08:34;;;;;;;16.27;3.60;;;7.50;92.50;;;;;;5072867;28;20094;-72
2021/03/19 08:11:19;;;;;;;8.07;2.60;;;7.60;92.20;;;;;;5072893;28;20122;-72
2021/03/19 08:13:56;;;;;;;7.13;2.33;;;7.60;87.00;;;;;;5055019;28;20024;-72
2021/03/19 08:16:33;;;;;;;10.35;2.83;;;7.80;89.30;;;;;;5073043;28;20013;-72
2021/03/19 08:19:17;;;;;;;10.73;3.17;;;7.80;89.90;;;;;;5072916;28;20025;-72
2021/03/19 08:22:27;;;;;;;10.27;3.08;;;8.00;90.50;;;;;;5070831;28;20025;-72
2021/03/19 08:25:04;;;;;;;9.32;2.10;;;8.20;91.30;;;;;;5072245;28;20456;-73
2021/03/19 08:27:47;;;;;;;9.93;2.70;;;8.30;89.60;;;;;;5071878;28;20147;-72
2021/03/19 08:30:30;;;;;;;10.77;2.65;;;8.30;87.00;;;;;;5072571;28;20024;-73
2021/03/19 08:33:26;;;;;;;6.13;2.20;;;8.40;90.90;;;;;;5072279;28;20376;-73
2021/03/19 08:36:06;;;;;;;6.80;2.03;;;8.60;90.40;;;;;;5071956;28;20093;-72
2021/03/19 08:38:45;;;;;;;8.63;1.67;;;8.80;83.80;;;;;;5052027;28;20579;-73
2021/03/19 08:41:27;;;;;;;8.77;1.80;;;9.00;88.10;;;;;;5054326;28;20012;-73
2021/03/19 08:44:05;;;;;;;6.07;1.63;;;9.20;82.20;;;;;;5072461;28;20078;-72
2021/03/19 08:46:37;;;;;;;5.57;2.17;;;9.30;81.10;;;;;;5054479;28;20031;-72
2021/03/19 08:49:11;;;;;;;6.88;1.80;;;9.40;86.00;;;;;;5072276;28;20064;-72
2021/03/19 08:51:40;;;;;;;3.80;1.55;;;9.50;87.10;;;;;;5054552;28;20103;-73
2021/03/19 08:54:18;;;;;;;4.75;1.83;;;9.60;78.50;;;;;;5072520;28;20099;-73
2021/03/19 08:56:47;;;;;;;6.45;1.33;;;9.80;79.40;;;;;;5072192;28;20023;-73
2021/03/19 08:59:36;;;;;;;8.10;2.13;;;10.00;85.00;;;;;;5072404;28;20028;-73
2021/03/19 09:02:24;;;;;;;4.32;1.83;;;10.10;67.50;;;;;;5061758;28;20123;-73
2021/03/19 09:04:53;;;;;;;5.88;1.33;;;10.40;58.60;;;;;;5053933;28;20025;-72
2021/03/19 09:07:28;;;;;;;6.80;2.33;;;10.70;85.30;;;;;;5054046;28;20021;-72
2021/03/19 09:09:56;;;;;;;6.85;1.83;;;10.80;80.00;;;;;;5071801;28;20025;-73
2021/03/19 09:12:27;;;;;;;6.85;2.60;;;10.90;76.80;;;;;;5054085;28;20024;-72
2021/03/19 09:15:15;;;;;;;4.00;2.05;;;10.90;77.40;;;;;;5071822;28;20424;-72
2021/03/19 09:17:44;;;;;;;5.28;2.13;;;10.90;70.10;;;;;;5054009;28;20020;-71
2021/03/19 09:20:25;;;;;;;4.82;1.20;;;10.90;73.30;;;;;;5054641;28;20372;-71
2021/03/19 09:23:09;;;;;;;4.47;2.08;;;11.00;83.00;;;;;;5053922;28;20032;-72
2021/03/19 09:25:44;;;;;;;5.07;2.78;;;11.10;57.70;;;;;;5071924;28;20466;-72
2021/03/19 09:28:30;;;;;;;6.20;1.70;;;11.10;71.40;;;;;;5054025;28;20241;-73
2021/03/19 09:30:59;;;;;;;4.35;1.92;;;11.40;84.90;;;;;;5071576;28;20119;-72
2021/03/19 09:33:43;;;;;;;5.50;2.45;;;11.40;74.30;;;;;;5072071;28;20501;-72
2021/03/19 09:36:46;;;;;;;5.53;1.75;;;11.50;71.60;;;;;;5057552;28;20039;-72
2021/03/19 09:39:45;;;;;;;5.35;1.90;;;11.40;70.00;;;;;;5088397;28;20027;-73
2021/03/19 09:42:17;;;;;;;6.07;2.72;;;11.60;61.20;;;;;;5078041;28;20025;-72
2021/03/19 09:44:44;;;;;;;3.35;1.35;;;11.70;62.30;;;;;;5096292;28;20012;-72
2021/03/19 09:47:09;;;;;;;3.63;1.40;;;11.80;84.90;;;;;;5077981;28;20031;-73
2021/03/19 09:49:35;;;;;;;5.20;1.45;;;11.80;86.20;;;;;;5075926;28;20028;-73
2021/03/19 09:52:16;;;;;;;5.53;2.30;;;11.90;88.00;;;;;;5076490;28;20020;-71
2021/03/19 09:54:42;;;;;;;4.78;1.85;;;12.00;75.20;;;;;;5076286;28;20017;-71
2021/03/19 09:57:24;;;;;;;6.65;1.55;;;12.10;82.20;;;;;;5075505;28;20419;-72
2021/03/19 10:00:06;;;;;;;8.77;2.50;;;12.30;85.50;;;;;;5075387;28;20028;-72
2021/03/19 10:02:41;;;;;;;5.35;2.22;;;12.30;76.70;;;;;;5075547;28;20025;-72
2021/03/19 10:05:23;;;;;;;5.35;2.22;;;12.40;73.40;;;;;;5075327;28;20046;-72
2021/03/19 10:07:58;;;;;;;3.13;1.33;;;12.20;73.70;;;;;;5075156;28;20040;-72
2021/03/19 10:10:39;;;;;;;4.90;0.93;;;12.40;84.00;;;;;;5057581;28;20051;-73
2021/03/19 10:13:07;;;;;;;3.70;1.95;;;12.40;87.30;;;;;;5057212;28;20120;-73
2021/03/19 10:15:33;;;;;;;4.10;1.45;;;12.60;87.80;;;;;;5057429;28;20024;-73
2021/03/19 10:18:01;;;;;;;6.90;2.78;;;12.60;87.60;;;;;;5057102;28;20013;-72
2021/03/19 10:20:38;;;;;;;6.20;1.50;;;12.60;81.50;;;;;;5075477;28;20046;-73
2021/03/19 10:23:14;;;;;;;6.65;2.20;;;12.50;87.20;;;;;;5057032;28;20069;-74
2021/03/19 10:25:45;;;;;;;5.82;1.92;;;12.50;79.10;;;;;;5057283;28;20020;-74
2021/03/19 10:28:16;;;;;;;3.58;1.75;;;12.50;80.00;;;;;;5056967;28;20016;-74
2021/03/19 10:31:08;;;;;;;2.60;1.13;;;12.50;79.30;;;;;;5057218;28;20031;-73
2021/03/19 10:33:43;;;;;;;7.30;2.13;;;12.60;75.10;;;;;;5057077;28;20051;-74
2021/03/19 10:36:11;;;;;;;13.68;2.28;;;12.90;77.40;;;;;;5075083;28;20023;-74
2021/03/19 10:38:36;;;;;;;8.55;3.60;;;13.10;80.50;;;;;;5075091;28;20020;-73
2021/03/19 10:41:33;;;;;;;8.93;2.67;;;13.20;54.20;;;;;;5074599;28;20025;-73
2021/03/19 10:44:22;;;;;;;7.03;2.95;;;13.30;64.70;;;;;;5074412;28;20133;-72
2021/03/19 10:46:59;;;;;;;3.83;1.08;;;13.50;72.40;;;;;;5074616;28;20013;-73
2021/03/19 10:49:41;;;;;;;3.53;1.45;;;13.60;85.00;;;;;;5055181;28;20024;-73
2021/03/19 10:52:47;;;;;;;3.70;1.80;;;13.70;82.40;;;;;;5074844;28;20475;-74
2021/03/19 10:55:25;;;;;;;5.80;1.55;;;13.90;83.40;;;;;;4992537;28;20058;-74
2021/03/19 10:57:56;;;;;;;6.25;2.33;;;13.60;73.80;;;;;;5067145;28;20036;-74
2021/03/19 11:00:40;;;;;;;5.57;2.22;;;13.80;66.20;;;;;;5074217;28;20346;-74
2021/03/19 11:03:08;;;;;;;5.53;1.27;;;13.80;55.50;;;;;;5074278;28;20349;-73
2021/03/19 11:05:58;;;;;;;6.80;2.80;;;13.80;81.40;;;;;;5074290;28;20017;-72
2021/03/19 11:08:24;;;;;;;5.00;1.95;;;14.00;67.50;;;;;;5073996;28;20056;-73
2021/03/19 11:10:52;;;;;;;3.85;1.95;;;14.00;75.80;;;;;;5074318;28;20032;-73
2021/03/19 11:13:38;;;;;;;4.78;2.63;;;14.00;73.70;;;;;;5074094;28;20095;-73
2021/03/19 11:16:25;;;;;;;3.70;1.35;;;14.20;79.50;;;;;;5056103;28;20016;-71
2021/03/19 11:19:03;;;;;;;4.50;1.48;;;14.20;83.40;;;;;;5073639;28;20368;-72
2021/03/19 11:21:30;;;;;;;4.85;2.08;;;14.40;81.20;;;;;;5073050;28;20047;-72
2021/03/19 11:24:27;;;;;;;6.85;2.45;;;14.40;63.00;;;;;;5073971;28;20027;-71
2021/03/19 11:27:17;;;;;;;3.35;1.33;;;14.20;63.60;;;;;;5067735;28;20028;-71
2021/03/19 11:29:42;;;;;;;6.27;1.43;;;14.30;85.60;;;;;;5074081;28;20070;-72
2021/03/19 11:32:26;;;;;;;4.63;1.15;;;14.30;83.70;;;;;;5073731;28;20259;-72
2021/03/19 11:34:55;;;;;;;6.38;2.13;;;14.30;84.30;;;;;;5073740;28;20013;-72
2021/03/19 11:37:22;;;;;;;4.57;1.52;;;14.30;76.40;;;;;;5073862;28;20052;-72
2021/03/19 11:40:07;;;;;;;5.15;1.98;;;14.20;81.50;;;;;;5072566;28;20021;-72
2021/03/19 11:42:40;;;;;;;5.00;1.73;;;14.50;85.00;;;;;;5055774;28;20021;-73
2021/03/19 11:45:18;;;;;;;6.93;2.17;;;14.50;73.30;;;;;;5073502;28;20017;-73
2021/03/19 11:47:50;;;;;;;2.75;1.40;;;14.60;64.00;;;;;;5073613;28;20460;-73
2021/03/19 11:50:22;;;;;;;2.95;1.63;;;14.80;71.10;;;;;;5073388;28;20404;-73
2021/03/19 11:52:50;;;;;;;3.10;1.23;;;14.90;79.00;;;;;;5073380;28;20051;-73
2021/03/19 11:55:22;;;;;;;3.50;1.10;;;15.20;85.40;;;;;;5055406;28;20056;-72
2021/03/19 11:57:49;;;;;;;4.75;1.10;;;15.20;85.90;;;;;;5073587;28;20019;-72
2021/03/19 12:00:17;;;;;;;4.15;1.58;;;15.20;84.90;;;;;;5073262;28;20060;-72
2021/03/19 12:02:43;;;;;;;3.15;1.25;;;15.20;69.60;;;;;;5073372;28;20040;-72
2021/03/19 12:05:11;;;;;;;4.00;1.45;;;15.40;84.30;;;;;;5072843;28;20055;-73
2021/03/19 12:07:37;;;;;;;3.53;1.88;;;15.70;80.80;;;;;;5073295;28;20048;-73
2021/03/19 12:10:05;;;;;;;1.58;0.80;;;15.70;57.50;;;;;;5072905;28;20028;-73
2021/03/19 12:12:30;;;;;;;3.60;1.30;;;15.80;82.90;;;;;;5073226;28;20052;-72
2021/03/19 12:14:57;;;;;;;5.78;1.52;;;15.70;80.90;;;;;;5072915;28;20020;-71
2021/03/19 12:17:23;;;;;;;2.83;1.35;;;15.40;79.50;;;;;;5073082;28;20017;-70
2021/03/19 12:19:49;;;;;;;4.18;1.63;;;15.30;75.40;;;;;;5082659;28;20169;-73
2021/03/19 12:22:15;;;;;;;2.63;0.90;;;15.30;81.30;;;;;;5072663;28;20054;-72
2021/03/19 12:24:41;;;;;;;3.25;1.23;;;15.10;86.30;;;;;;5092461;28;20019;-72
2021/03/19 12:27:07;;;;;;;3.88;1.15;;;15.10;85.30;;;;;;5074330;28;20012;-72
2021/03/19 12:29:35;;;;;;;5.65;1.63;;;15.00;84.50;;;;;;5074799;28;20460;-72
2021/03/19 12:32:00;;;;;;;4.35;1.67;;;14.90;69.10;;;;;;5092354;28;20054;-72
2021/03/19 12:34:26;;;;;;;2.25;0.80;;;15.10;72.10;;;;;;5074302;28;20043;-74
2021/03/19 12:36:52;;;;;;;1.65;0.65;;;15.40;83.70;;;;;;5074640;28;20009;-72
2021/03/19 12:39:19;;;;;;;4.13;0.88;;;15.60;84.20;;;;;;5074416;28;20069;-74
2021/03/19 12:41:45;;;;;;;3.38;0.98;;;15.80;82.30;;;;;;5093137;28;20012;-75
2021/03/19 12:44:11;;;;;;;3.22;1.38;;;16.00;83.60;;;;;;5094455;28;20016;-73
2021/03/19 12:46:38;;;;;;;2.58;1.20;;;16.10;82.80;;;;;;5074472;28;20057;-74
2021/03/19 12:49:04;;;;;;;8.65;1.35;;;16.20;73.90;;;;;;5078843;28;20020;-74
2021/03/19 12:51:30;;;;;;;3.72;1.63;;;16.10;72.50;;;;;;5054463;28;20020;-74
2021/03/19 12:53:56;;;;;;;6.55;1.45;;;16.00;73.80;;;;;;5054167;28;20020;-75
2021/03/19 12:56:21;;;;;;;3.58;1.33;;;15.80;75.30;;;;;;5066801;28;20090;-73
2021/03/19 12:58:47;;;;;;;12.50;3.05;;;15.70;69.30;;;;;;5092674;28;20055;-72
2021/03/19 13:01:18;;;;;;;7.38;2.17;;;15.90;80.80;;;;;;5073164;28;20042;-74
2021/03/19 13:03:44;;;;;;;7.78;2.33;;;15.80;80.60;;;;;;5074149;28;20332;-74
2021/03/19 13:06:10;;;;;;;8.32;2.28;;;15.80;75.50;;;;;;5086830;28;20106;-73
2021/03/19 13:08:35;;;;;;;7.90;2.80;;;15.90;79.70;;;;;;5073731;28;20089;-74
2021/03/19 13:11:01;;;;;;;9.85;2.20;;;15.90;70.30;;;;;;5092175;28;20410;-72
2021/03/19 13:13:27;;;;;;;9.77;2.50;;;15.80;65.50;;;;;;5073761;28;20468;-73
2021/03/19 13:15:53;;;;;;;8.20;3.08;;;15.80;75.40;;;;;;5092306;28;20024;-72
2021/03/19 13:18:19;;;;;;;5.05;1.80;;;15.70;81.00;;;;;;5092443;28;20065;-73
2021/03/19 13:20:44;;;;;;;9.15;2.20;;;15.90;71.80;;;;;;5074195;28;20077;-73
2021/03/19 13:23:10;;;;;;;11.02;3.15;;;15.80;69.40;;;;;;5073356;28;20020;-73
2021/03/19 13:25:38;;;;;;;11.25;3.55;;;15.90;82.20;;;;;;5073556;28;20055;-71